sensor_id;sensor_type;location;lat;lon;timestamp;P1;durP1;ratioP1;P2;durP2;ratioP2
65535;SDS011;52145;49.342;9.116;2023-03-21T00:00:20;8.40;;;3.83;;
65535;SDS011;52145;49.342;9.116;2023-03-21T00:02:46;7.55;;;4.20;;
65535;SDS011;52145;49.342;9.116;2023-03-21T00:05:12;8.13;;;4.22;;
65535;SDS011;52145;49.342;9.116;2023-03-21T00:07:37;7.72;;;4.20;;
65535;SDS011;52145;49.342;9.116;2023-03-21T00:10:03;10.98;;;4.60;;
65535;SDS011;52145;49.342;9.116;2023-03-21T00:12:29;23.80;;;6.53;;
65535;SDS011;52145;49.342;9.116;2023-03-21T00:14:56;16.02;;;6.15;;
65535;SDS011;52145;49.342;9.116;2023-03-21T00:17:29;10.68;;;4.15;;
65535;SDS011;52145;49.342;9.116;2023-03-21T00:19:56;11.93;;;4.35;;
65535;SDS011;52145;49.342;9.116;2023-03-21T00:22:26;7.70;;;4.10;;
65535;SDS011;52145;49.342;9.116;2023-03-21T00:24:52;9.32;;;3.72;;
65535;SDS011;52145;49.342;9.116;2023-03-21T00:27:19;8.82;;;4.32;;
65535;SDS011;52145;49.342;9.116;2023-03-21T00:29:45;7.22;;;3.90;;
65535;SDS011;52145;49.342;9.116;2023-03-21T00:32:12;6.05;;;3.17;;
65535;SDS011;52145;49.342;9.116;2023-03-21T00:34:38;6.82;;;3.47;;
65535;SDS011;52145;49.342;9.116;2023-03-21T00:37:04;7.22;;;3.60;;
65535;SDS011;52145;49.342;9.116;2023-03-21T00:39:32;9.15;;;3.53;;
65535;SDS011;52145;49.342;9.116;2023-03-21T00:41:57;6.18;;;2.80;;
65535;SDS011;52145;49.342;9.116;2023-03-21T00:44:23;7.05;;;3.85;;
65535;SDS011;52145;49.342;9.116;2023-03-21T00:46:49;8.57;;;3.42;;
65535;SDS011;52145;49.342;9.116;2023-03-21T00:49:15;11.13;;;3.40;;
65535;SDS011;52145;49.342;9.116;2023-03-21T00:51:41;6.80;;;3.80;;
65535;SDS011;52145;49.342;9.116;2023-03-21T00:54:08;7.45;;;3.67;;
65535;SDS011;52145;49.342;9.116;2023-03-21T00:56:36;9.85;;;5.20;;
65535;SDS011;52145;49.342;9.116;2023-03-21T00:59:01;8.23;;;3.67;;
65535;SDS011;52145;49.342;9.116;2023-03-21T01:01:27;7.78;;;3.75;;
65535;SDS011;52145;49.342;9.116;2023-03-21T01:03:58;9.32;;;3.83;;
65535;SDS011;52145;49.342;9.116;2023-03-21T01:06:35;8.23;;;4.07;;
65535;SDS011;52145;49.342;9.116;2023-03-21T01:09:05;6.88;;;3.70;;
65535;SDS011;52145;49.342;9.116;2023-03-21T01:11:35;23.05;;;4.25;;
65535;SDS011;52145;49.342;9.116;2023-03-21T01:14:00;9.98;;;3.88;;
65535;SDS011;52145;49.342;9.116;2023-03-21T01:16:26;8.80;;;3.80;;
65535;SDS011;52145;49.342;9.116;2023-03-21T01:18:52;15.60;;;4.10;;
65535;SDS011;52145;49.342;9.116;2023-03-21T01:21:18;8.32;;;4.47;;
65535;SDS011;52145;49.342;9.116;2023-03-21T01:23:44;10.38;;;4.57;;
65535;SDS011;52145;49.342;9.116;2023-03-21T01:26:10;12.73;;;4.53;;
65535;SDS011;52145;49.342;9.116;2023-03-21T01:28:37;10.88;;;4.40;;
65535;SDS011;52145;49.342;9.116;2023-03-21T01:31:04;20.35;;;4.82;;
65535;SDS011;52145;49.342;9.116;2023-03-21T01:33:31;13.70;;;4.10;;
65535;SDS011;52145;49.342;9.116;2023-03-21T01:35:58;6.57;;;3.28;;
65535;SDS011;52145;49.342;9.116;2023-03-21T01:38:24;6.53;;;3.17;;
65535;SDS011;52145;49.342;9.116;2023-03-21T01:40:50;6.63;;;3.10;;
65535;SDS011;52145;49.342;9.116;2023-03-21T01:48:44;7.57;;;3.00;;
65535;SDS011;52145;49.342;9.116;2023-03-21T01:51:12;7.40;;;2.80;;
65535;SDS011;52145;49.342;9.116;2023-03-21T01:53:38;6.35;;;2.65;;
65535;SDS011;52145;49.342;9.116;2023-03-21T01:56:07;6.68;;;3.15;;
65535;SDS011;52145;49.342;9.116;2023-03-21T01:58:37;7.75;;;3.13;;
65535;SDS011;52145;49.342;9.116;2023-03-21T02:01:06;6.18;;;3.03;;
65535;SDS011;52145;49.342;9.116;2023-03-21T02:03:33;7.03;;;3.20;;
65535;SDS011;52145;49.342;9.116;2023-03-21T02:06:13;6.03;;;3.35;;
65535;SDS011;52145;49.342;9.116;2023-03-21T02:08:56;6.28;;;3.22;;
65535;SDS011;52145;49.342;9.116;2023-03-21T02:11:24;6.05;;;2.78;;
65535;SDS011;52145;49.342;9.116;2023-03-21T02:13:51;4.68;;;2.90;;
65535;SDS011;52145;49.342;9.116;2023-03-21T02:22:12;9.32;;;3.33;;
65535;SDS011;52145;49.342;9.116;2023-03-21T02:27:58;8.55;;;3.30;;
65535;SDS011;52145;49.342;9.116;2023-03-21T02:33:09;8.75;;;3.42;;
65535;SDS011;52145;49.342;9.116;2023-03-21T02:38:54;8.07;;;3.60;;
65535;SDS011;52145;49.342;9.116;2023-03-21T02:44:16;8.98;;;4.07;;
65535;SDS011;52145;49.342;9.116;2023-03-21T02:46:51;10.10;;;3.85;;
65535;SDS011;52145;49.342;9.116;2023-03-21T02:49:23;11.52;;;3.55;;
65535;SDS011;52145;49.342;9.116;2023-03-21T02:52:07;8.30;;;3.60;;
65535;SDS011;52145;49.342;9.116;2023-03-21T02:54:37;11.40;;;4.15;;
65535;SDS011;52145;49.342;9.116;2023-03-21T02:57:05;8.50;;;4.18;;
65535;SDS011;52145;49.342;9.116;2023-03-21T02:59:31;7.93;;;3.28;;
65535;SDS011;52145;49.342;9.116;2023-03-21T03:01:59;7.13;;;2.95;;
65535;SDS011;52145;49.342;9.116;2023-03-21T03:04:25;8.38;;;3.00;;
65535;SDS011;52145;49.342;9.116;2023-03-21T03:10:26;4.43;;;2.50;;
65535;SDS011;52145;49.342;9.116;2023-03-21T03:13:14;5.80;;;2.90;;
65535;SDS011;52145;49.342;9.116;2023-03-21T03:16:39;7.47;;;3.13;;
65535;SDS011;52145;49.342;9.116;2023-03-21T03:18:49;7.22;;;3.00;;
65535;SDS011;52145;49.342;9.116;2023-03-21T03:21:50;7.20;;;2.50;;
65535;SDS011;52145;49.342;9.116;2023-03-21T03:24:23;5.95;;;2.40;;
65535;SDS011;52145;49.342;9.116;2023-03-21T03:26:58;5.32;;;3.33;;
65535;SDS011;52145;49.342;9.116;2023-03-21T03:29:33;4.18;;;2.88;;
65535;SDS011;52145;49.342;9.116;2023-03-21T03:32:09;5.47;;;2.75;;
65535;SDS011;52145;49.342;9.116;2023-03-21T03:34:39;5.57;;;2.90;;
65535;SDS011;52145;49.342;9.116;2023-03-21T03:37:09;5.05;;;2.45;;
65535;SDS011;52145;49.342;9.116;2023-03-21T03:39:39;6.45;;;3.13;;
65535;SDS011;52145;49.342;9.116;2023-03-21T03:42:18;6.32;;;2.95;;
65535;SDS011;52145;49.342;9.116;2023-03-21T03:44:49;8.25;;;3.30;;
65535;SDS011;52145;49.342;9.116;2023-03-21T03:47:20;7.07;;;2.70;;
65535;SDS011;52145;49.342;9.116;2023-03-21T03:50:01;5.20;;;2.80;;
65535;SDS011;52145;49.342;9.116;2023-03-21T03:52:35;6.47;;;2.95;;
65535;SDS011;52145;49.342;9.116;2023-03-21T03:55:06;8.95;;;3.33;;
65535;SDS011;52145;49.342;9.116;2023-03-21T03:57:35;5.88;;;2.95;;
65535;SDS011;52145;49.342;9.116;2023-03-21T04:00:02;7.68;;;3.38;;
65535;SDS011;52145;49.342;9.116;2023-03-21T04:02:33;9.80;;;3.00;;
65535;SDS011;52145;49.342;9.116;2023-03-21T07:10:37;5.90;;;3.75;;
65535;SDS011;52145;49.342;9.116;2023-03-21T07:13:04;5.50;;;3.75;;
65535;SDS011;52145;49.342;9.116;2023-03-21T07:15:29;8.73;;;3.83;;
65535;SDS011;52145;49.342;9.116;2023-03-21T07:17:55;11.50;;;4.03;;
65535;SDS011;52145;49.342;9.116;2023-03-21T07:20:21;6.65;;;3.30;;
65535;SDS011;52145;49.342;9.116;2023-03-21T07:22:46;8.00;;;3.58;;
65535;SDS011;52145;49.342;9.116;2023-03-21T07:25:12;8.45;;;4.03;;
65535;SDS011;52145;49.342;9.116;2023-03-21T07:27:37;7.07;;;3.53;;
65535;SDS011;52145;49.342;9.116;2023-03-21T07:30:03;7.95;;;3.47;;
65535;SDS011;52145;49.342;9.116;2023-03-21T07:32:33;6.78;;;3.25;;
65535;SDS011;52145;49.342;9.116;2023-03-21T07:34:59;6.75;;;3.35;;
65535;SDS011;52145;49.342;9.116;2023-03-21T07:37:25;6.18;;;3.15;;
65535;SDS011;52145;49.342;9.116;2023-03-21T07:39:51;7.55;;;3.42;;
65535;SDS011;52145;49.342;9.116;2023-03-21T07:42:17;7.75;;;3.85;;
65535;SDS011;52145;49.342;9.116;2023-03-21T07:44:43;7.53;;;3.95;;
65535;SDS011;52145;49.342;9.116;2023-03-21T07:47:08;7.20;;;3.88;;
65535;SDS011;52145;49.342;9.116;2023-03-21T07:49:35;9.63;;;3.45;;
65535;SDS011;52145;49.342;9.116;2023-03-21T07:52:01;9.68;;;3.70;;
65535;SDS011;52145;49.342;9.116;2023-03-21T07:54:27;9.07;;;4.03;;
65535;SDS011;52145;49.342;9.116;2023-03-21T07:56:53;6.43;;;3.53;;
65535;SDS011;52145;49.342;9.116;2023-03-21T07:59:19;10.65;;;4.22;;
65535;SDS011;52145;49.342;9.116;2023-03-21T08:01:45;6.63;;;3.58;;
65535;SDS011;52145;49.342;9.116;2023-03-21T08:04:10;6.85;;;3.60;;
65535;SDS011;52145;49.342;9.116;2023-03-21T08:06:36;7.03;;;4.22;;
65535;SDS011;52145;49.342;9.116;2023-03-21T08:09:02;6.30;;;3.40;;
65535;SDS011;52145;49.342;9.116;2023-03-21T08:11:27;10.10;;;3.60;;
65535;SDS011;52145;49.342;9.116;2023-03-21T08:13:55;8.68;;;4.40;;
65535;SDS011;52145;49.342;9.116;2023-03-21T08:16:21;7.55;;;3.80;;
65535;SDS011;52145;49.342;9.116;2023-03-21T08:18:47;7.53;;;3.95;;
65535;SDS011;52145;49.342;9.116;2023-03-21T08:21:12;6.70;;;3.75;;
65535;SDS011;52145;49.342;9.116;2023-03-21T08:23:38;10.35;;;4.60;;
65535;SDS011;52145;49.342;9.116;2023-03-21T08:26:04;10.27;;;4.00;;
65535;SDS011;52145;49.342;9.116;2023-03-21T08:28:29;7.75;;;4.40;;
65535;SDS011;52145;49.342;9.116;2023-03-21T08:30:55;8.68;;;4.35;;
65535;SDS011;52145;49.342;9.116;2023-03-21T08:33:21;7.45;;;3.47;;
65535;SDS011;52145;49.342;9.116;2023-03-21T08:35:47;9.13;;;4.20;;
65535;SDS011;52145;49.342;9.116;2023-03-21T08:38:12;8.75;;;3.60;;
65535;SDS011;52145;49.342;9.116;2023-03-21T08:40:38;5.20;;;3.40;;
65535;SDS011;52145;49.342;9.116;2023-03-21T08:43:04;6.32;;;3.75;;
65535;SDS011;52145;49.342;9.116;2023-03-21T08:45:30;7.50;;;3.58;;
65535;SDS011;52145;49.342;9.116;2023-03-21T08:47:55;7.85;;;4.05;;
65535;SDS011;52145;49.342;9.116;2023-03-21T08:50:22;7.75;;;3.78;;
65535;SDS011;52145;49.342;9.116;2023-03-21T08:52:49;8.48;;;3.78;;
65535;SDS011;52145;49.342;9.116;2023-03-21T08:55:15;6.93;;;3.47;;
65535;SDS011;52145;49.342;9.116;2023-03-21T08:57:43;7.03;;;3.17;;
65535;SDS011;52145;49.342;9.116;2023-03-21T09:00:10;8.27;;;3.45;;
65535;SDS011;52145;49.342;9.116;2023-03-21T09:02:38;8.43;;;3.38;;
65535;SDS011;52145;49.342;9.116;2023-03-21T09:05:04;10.70;;;4.15;;
65535;SDS011;52145;49.342;9.116;2023-03-21T09:07:31;9.27;;;3.83;;
65535;SDS011;52145;49.342;9.116;2023-03-21T09:10:00;5.95;;;3.17;;
65535;SDS011;52145;49.342;9.116;2023-03-21T09:12:29;7.18;;;3.40;;
65535;SDS011;52145;49.342;9.116;2023-03-21T09:14:55;7.05;;;3.75;;
65535;SDS011;52145;49.342;9.116;2023-03-21T09:17:20;4.47;;;3.13;;
65535;SDS011;52145;49.342;9.116;2023-03-21T09:19:46;8.70;;;3.22;;
65535;SDS011;52145;49.342;9.116;2023-03-21T09:22:13;7.45;;;3.20;;
65535;SDS011;52145;49.342;9.116;2023-03-21T09:24:42;6.47;;;2.92;;
65535;SDS011;52145;49.342;9.116;2023-03-21T09:27:11;4.80;;;2.70;;
65535;SDS011;52145;49.342;9.116;2023-03-21T09:29:38;5.82;;;2.53;;
65535;SDS011;52145;49.342;9.116;2023-03-21T09:32:03;8.35;;;3.40;;
65535;SDS011;52145;49.342;9.116;2023-03-21T09:34:30;8.60;;;3.20;;
65535;SDS011;52145;49.342;9.116;2023-03-21T09:36:55;6.45;;;2.50;;
65535;SDS011;52145;49.342;9.116;2023-03-21T09:39:22;7.18;;;2.97;;
65535;SDS011;52145;49.342;9.116;2023-03-21T09:41:51;8.85;;;3.40;;
65535;SDS011;52145;49.342;9.116;2023-03-21T09:47:37;6.65;;;2.90;;
65535;SDS011;52145;49.342;9.116;2023-03-21T09:50:14;6.93;;;3.40;;
65535;SDS011;52145;49.342;9.116;2023-03-21T09:53:00;7.40;;;2.92;;
65535;SDS011;52145;49.342;9.116;2023-03-21T09:55:30;8.18;;;3.30;;
65535;SDS011;52145;49.342;9.116;2023-03-21T09:58:01;5.45;;;2.88;;
65535;SDS011;52145;49.342;9.116;2023-03-21T10:00:38;5.00;;;2.78;;
65535;SDS011;52145;49.342;9.116;2023-03-21T10:03:29;7.32;;;2.20;;
65535;SDS011;52145;49.342;9.116;2023-03-21T10:05:59;8.77;;;2.33;;
65535;SDS011;52145;49.342;9.116;2023-03-21T10:13:49;4.18;;;2.00;;
65535;SDS011;52145;49.342;9.116;2023-03-21T10:16:33;7.43;;;2.30;;
65535;SDS011;52145;49.342;9.116;2023-03-21T10:19:08;4.35;;;2.97;;
65535;SDS011;52145;49.342;9.116;2023-03-21T10:21:38;4.95;;;2.60;;
65535;SDS011;52145;49.342;9.116;2023-03-21T10:24:07;4.85;;;2.47;;
65535;SDS011;52145;49.342;9.116;2023-03-21T10:26:46;5.65;;;2.83;;
65535;SDS011;52145;49.342;9.116;2023-03-21T10:29:13;7.82;;;2.25;;
65535;SDS011;52145;49.342;9.116;2023-03-21T10:31:41;8.18;;;3.15;;
65535;SDS011;52145;49.342;9.116;2023-03-21T10:34:27;5.32;;;2.47;;
65535;SDS011;52145;49.342;9.116;2023-03-21T10:36:57;8.07;;;2.90;;
65535;SDS011;52145;49.342;9.116;2023-03-21T10:39:26;6.50;;;2.78;;
65535;SDS011;52145;49.342;9.116;2023-03-21T10:41:59;8.98;;;2.60;;
65535;SDS011;52145;49.342;9.116;2023-03-21T10:44:32;8.20;;;2.90;;
65535;SDS011;52145;49.342;9.116;2023-03-21T10:47:03;5.10;;;2.10;;
65535;SDS011;52145;49.342;9.116;2023-03-21T10:49:31;5.93;;;2.58;;
65535;SDS011;52145;49.342;9.116;2023-03-21T10:51:57;7.32;;;2.65;;
65535;SDS011;52145;49.342;9.116;2023-03-21T10:54:31;6.15;;;2.40;;
65535;SDS011;52145;49.342;9.116;2023-03-21T10:57:07;7.22;;;2.47;;
65535;SDS011;52145;49.342;9.116;2023-03-21T10:59:43;8.90;;;2.58;;
65535;SDS011;52145;49.342;9.116;2023-03-21T11:02:19;8.07;;;2.20;;
65535;SDS011;52145;49.342;9.116;2023-03-21T11:04:51;7.65;;;3.03;;
65535;SDS011;52145;49.342;9.116;2023-03-21T11:07:18;5.95;;;2.42;;
65535;SDS011;52145;49.342;9.116;2023-03-21T11:09:49;4.93;;;2.28;;
65535;SDS011;52145;49.342;9.116;2023-03-21T11:12:28;5.72;;;2.53;;
65535;SDS011;52145;49.342;9.116;2023-03-21T11:14:54;6.60;;;2.88;;
65535;SDS011;52145;49.342;9.116;2023-03-21T11:17:27;6.72;;;2.58;;
65535;SDS011;52145;49.342;9.116;2023-03-21T11:19:57;6.22;;;2.45;;
65535;SDS011;52145;49.342;9.116;2023-03-21T11:22:27;4.63;;;2.33;;
65535;SDS011;52145;49.342;9.116;2023-03-21T11:24:58;7.80;;;3.13;;
65535;SDS011;52145;49.342;9.116;2023-03-21T11:27:26;9.73;;;3.33;;
65535;SDS011;52145;49.342;9.116;2023-03-21T11:29:54;6.75;;;2.97;;
65535;SDS011;52145;49.342;9.116;2023-03-21T11:32:25;4.97;;;2.22;;
65535;SDS011;52145;49.342;9.116;2023-03-21T11:42:39;5.93;;;2.42;;
65535;SDS011;52145;49.342;9.116;2023-03-21T11:45:10;6.63;;;2.92;;
65535;SDS011;52145;49.342;9.116;2023-03-21T11:47:38;10.60;;;2.85;;
65535;SDS011;52145;49.342;9.116;2023-03-21T11:50:27;5.28;;;2.35;;
65535;SDS011;52145;49.342;9.116;2023-03-21T11:53:13;6.20;;;2.53;;
65535;SDS011;52145;49.342;9.116;2023-03-21T11:56:03;5.40;;;2.70;;
65535;SDS011;52145;49.342;9.116;2023-03-21T12:06:59;5.50;;;2.55;;
65535;SDS011;52145;49.342;9.116;2023-03-21T12:09:33;5.40;;;2.23;;
65535;SDS011;52145;49.342;9.116;2023-03-21T12:18:05;4.32;;;2.13;;
65535;SDS011;52145;49.342;9.116;2023-03-21T12:23:45;2.90;;;1.83;;
65535;SDS011;52145;49.342;9.116;2023-03-21T12:26:20;5.75;;;2.30;;
65535;SDS011;52145;49.342;9.116;2023-03-21T12:31:52;3.97;;;1.80;;
65535;SDS011;52145;49.342;9.116;2023-03-21T12:37:10;4.35;;;1.90;;
65535;SDS011;52145;49.342;9.116;2023-03-21T12:45:19;4.35;;;2.05;;
65535;SDS011;52145;49.342;9.116;2023-03-21T12:48:19;3.75;;;2.08;;
65535;SDS011;52145;49.342;9.116;2023-03-21T12:50:57;5.50;;;1.85;;
65535;SDS011;52145;49.342;9.116;2023-03-21T12:56:34;5.68;;;1.92;;
65535;SDS011;52145;49.342;9.116;2023-03-21T12:59:07;5.65;;;2.65;;
65535;SDS011;52145;49.342;9.116;2023-03-21T13:01:35;4.47;;;2.25;;
65535;SDS011;52145;49.342;9.116;2023-03-21T13:07:02;5.25;;;2.40;;
65535;SDS011;52145;49.342;9.116;2023-03-21T13:09:38;4.05;;;2.00;;
65535;SDS011;52145;49.342;9.116;2023-03-21T13:12:23;5.95;;;2.00;;
65535;SDS011;52145;49.342;9.116;2023-03-21T13:15:07;4.28;;;1.75;;
65535;SDS011;52145;49.342;9.116;2023-03-21T13:17:58;4.32;;;1.73;;
65535;SDS011;52145;49.342;9.116;2023-03-21T13:20:36;6.03;;;2.63;;
65535;SDS011;52145;49.342;9.116;2023-03-21T13:23:11;5.38;;;3.05;;
65535;SDS011;52145;49.342;9.116;2023-03-21T13:25:45;6.65;;;2.50;;
65535;SDS011;52145;49.342;9.116;2023-03-21T13:31:18;3.70;;;1.88;;
65535;SDS011;52145;49.342;9.116;2023-03-21T13:33:49;5.03;;;2.08;;
65535;SDS011;52145;49.342;9.116;2023-03-21T13:36:37;4.50;;;1.55;;
65535;SDS011;52145;49.342;9.116;2023-03-21T13:39:04;4.15;;;1.75;;
65535;SDS011;52145;49.342;9.116;2023-03-21T13:41:31;7.10;;;2.00;;
65535;SDS011;52145;49.342;9.116;2023-03-21T13:51:36;6.03;;;1.80;;
65535;SDS011;52145;49.342;9.116;2023-03-21T13:56:27;5.10;;;2.03;;
65535;SDS011;52145;49.342;9.116;2023-03-21T13:59:03;4.53;;;1.83;;
65535;SDS011;52145;49.342;9.116;2023-03-21T14:02:21;5.05;;;2.03;;
65535;SDS011;52145;49.342;9.116;2023-03-21T14:04:25;2.05;;;1.40;;
65535;SDS011;52145;49.342;9.116;2023-03-21T14:07:01;4.90;;;1.83;;
65535;SDS011;52145;49.342;9.116;2023-03-21T14:09:32;5.15;;;2.50;;
65535;SDS011;52145;49.342;9.116;2023-03-21T14:12:09;3.00;;;1.50;;
65535;SDS011;52145;49.342;9.116;2023-03-21T14:14:40;4.32;;;1.50;;
65535;SDS011;52145;49.342;9.116;2023-03-21T14:17:11;3.85;;;1.60;;
65535;SDS011;52145;49.342;9.116;2023-03-21T14:19:38;5.50;;;2.30;;
65535;SDS011;52145;49.342;9.116;2023-03-21T14:22:08;3.67;;;1.50;;
65535;SDS011;52145;49.342;9.116;2023-03-21T14:24:35;3.58;;;1.35;;
65535;SDS011;52145;49.342;9.116;2023-03-21T14:27:01;3.38;;;1.63;;
65535;SDS011;52145;49.342;9.116;2023-03-21T14:29:29;5.93;;;1.98;;
65535;SDS011;52145;49.342;9.116;2023-03-21T14:31:57;4.75;;;2.03;;
65535;SDS011;52145;49.342;9.116;2023-03-21T14:34:24;6.18;;;1.90;;
65535;SDS011;52145;49.342;9.116;2023-03-21T14:36:52;3.78;;;1.77;;
65535;SDS011;52145;49.342;9.116;2023-03-21T14:39:22;5.07;;;1.65;;
65535;SDS011;52145;49.342;9.116;2023-03-21T14:41:53;4.55;;;1.73;;
65535;SDS011;52145;49.342;9.116;2023-03-21T14:44:24;4.10;;;1.83;;
65535;SDS011;52145;49.342;9.116;2023-03-21T14:49:27;6.82;;;2.28;;
65535;SDS011;52145;49.342;9.116;2023-03-21T14:51:56;4.00;;;1.48;;
65535;SDS011;52145;49.342;9.116;2023-03-21T14:54:27;4.25;;;1.65;;
65535;SDS011;52145;49.342;9.116;2023-03-21T14:56:56;3.70;;;1.90;;
65535;SDS011;52145;49.342;9.116;2023-03-21T14:59:32;5.38;;;2.13;;
65535;SDS011;52145;49.342;9.116;2023-03-21T15:02:02;3.22;;;2.00;;
65535;SDS011;52145;49.342;9.116;2023-03-21T15:04:29;6.18;;;1.83;;
65535;SDS011;52145;49.342;9.116;2023-03-21T15:06:59;3.42;;;1.50;;
65535;SDS011;52145;49.342;9.116;2023-03-21T15:09:29;5.70;;;1.90;;
65535;SDS011;52145;49.342;9.116;2023-03-21T15:11:57;5.35;;;1.85;;
65535;SDS011;52145;49.342;9.116;2023-03-21T15:14:25;3.47;;;1.58;;
65535;SDS011;52145;49.342;9.116;2023-03-21T15:16:55;3.15;;;1.75;;
65535;SDS011;52145;49.342;9.116;2023-03-21T15:19:23;3.92;;;1.38;;
65535;SDS011;52145;49.342;9.116;2023-03-21T15:21:56;3.70;;;1.90;;
65535;SDS011;52145;49.342;9.116;2023-03-21T15:24:44;4.82;;;1.98;;
65535;SDS011;52145;49.342;9.116;2023-03-21T15:27:17;4.50;;;1.92;;
65535;SDS011;52145;49.342;9.116;2023-03-21T15:29:44;2.88;;;1.60;;
65535;SDS011;52145;49.342;9.116;2023-03-21T15:32:17;4.65;;;1.95;;
65535;SDS011;52145;49.342;9.116;2023-03-21T15:34:46;5.60;;;1.70;;
65535;SDS011;52145;49.342;9.116;2023-03-21T15:37:17;4.90;;;1.70;;
65535;SDS011;52145;49.342;9.116;2023-03-21T15:40:05;4.43;;;1.83;;
65535;SDS011;52145;49.342;9.116;2023-03-21T15:42:42;7.50;;;2.03;;
65535;SDS011;52145;49.342;9.116;2023-03-21T15:45:19;4.63;;;2.90;;
65535;SDS011;52145;49.342;9.116;2023-03-21T15:50:20;4.03;;;2.25;;
65535;SDS011;52145;49.342;9.116;2023-03-21T15:52:50;4.60;;;2.00;;
65535;SDS011;52145;49.342;9.116;2023-03-21T15:55:24;4.80;;;2.70;;
65535;SDS011;52145;49.342;9.116;2023-03-21T15:58:07;3.78;;;2.25;;
65535;SDS011;52145;49.342;9.116;2023-03-21T16:00:40;5.75;;;2.25;;
65535;SDS011;52145;49.342;9.116;2023-03-21T16:03:29;4.80;;;1.92;;
65535;SDS011;52145;49.342;9.116;2023-03-21T16:06:15;4.30;;;1.95;;
65535;SDS011;52145;49.342;9.116;2023-03-21T16:08:50;4.90;;;1.67;;
65535;SDS011;52145;49.342;9.116;2023-03-21T16:11:37;9.07;;;4.65;;
65535;SDS011;52145;49.342;9.116;2023-03-21T16:14:07;8.10;;;3.92;;
65535;SDS011;52145;49.342;9.116;2023-03-21T16:16:33;7.00;;;2.63;;
65535;SDS011;52145;49.342;9.116;2023-03-21T16:18:59;4.00;;;2.13;;
65535;SDS011;52145;49.342;9.116;2023-03-21T16:21:29;4.65;;;2.30;;
65535;SDS011;52145;49.342;9.116;2023-03-21T16:23:56;4.93;;;2.88;;
65535;SDS011;52145;49.342;9.116;2023-03-21T16:26:26;7.35;;;2.30;;
65535;SDS011;52145;49.342;9.116;2023-03-21T16:28:54;3.85;;;2.40;;
65535;SDS011;52145;49.342;9.116;2023-03-21T16:31:21;5.05;;;2.00;;
65535;SDS011;52145;49.342;9.116;2023-03-21T16:33:48;4.65;;;2.42;;
65535;SDS011;52145;49.342;9.116;2023-03-21T16:36:16;4.30;;;1.90;;
65535;SDS011;52145;49.342;9.116;2023-03-21T16:38:47;3.33;;;2.00;;
65535;SDS011;52145;49.342;9.116;2023-03-21T16:41:14;4.53;;;2.10;;
65535;SDS011;52145;49.342;9.116;2023-03-21T16:43:40;4.25;;;2.10;;
65535;SDS011;52145;49.342;9.116;2023-03-21T16:46:13;4.85;;;2.33;;
65535;SDS011;52145;49.342;9.116;2023-03-21T16:48:40;6.03;;;2.90;;
65535;SDS011;52145;49.342;9.116;2023-03-21T16:51:10;8.60;;;2.22;;
65535;SDS011;52145;49.342;9.116;2023-03-21T16:53:37;4.85;;;2.50;;
65535;SDS011;52145;49.342;9.116;2023-03-21T16:56:02;4.35;;;2.08;;
65535;SDS011;52145;49.342;9.116;2023-03-21T16:58:29;3.33;;;1.88;;
65535;SDS011;52145;49.342;9.116;2023-03-21T17:00:54;4.28;;;2.00;;
65535;SDS011;52145;49.342;9.116;2023-03-21T17:03:20;5.60;;;2.35;;
65535;SDS011;52145;49.342;9.116;2023-03-21T17:05:46;8.55;;;3.17;;
65535;SDS011;52145;49.342;9.116;2023-03-21T17:08:16;9.02;;;2.60;;
65535;SDS011;52145;49.342;9.116;2023-03-21T17:10:44;6.97;;;3.00;;
65535;SDS011;52145;49.342;9.116;2023-03-21T17:13:09;6.38;;;2.25;;
65535;SDS011;52145;49.342;9.116;2023-03-21T17:15:35;5.53;;;2.55;;
65535;SDS011;52145;49.342;9.116;2023-03-21T17:18:02;10.45;;;2.33;;
65535;SDS011;52145;49.342;9.116;2023-03-21T17:20:29;6.95;;;3.83;;
65535;SDS011;52145;49.342;9.116;2023-03-21T17:22:56;8.40;;;3.97;;
65535;SDS011;52145;49.342;9.116;2023-03-21T17:25:23;6.35;;;3.38;;
65535;SDS011;52145;49.342;9.116;2023-03-21T17:27:48;8.50;;;3.47;;
65535;SDS011;52145;49.342;9.116;2023-03-21T17:32:50;8.23;;;3.63;;
65535;SDS011;52145;49.342;9.116;2023-03-21T17:35:16;8.38;;;5.15;;
65535;SDS011;52145;49.342;9.116;2023-03-21T17:37:42;11.15;;;5.63;;
65535;SDS011;52145;49.342;9.116;2023-03-21T17:40:14;9.68;;;4.63;;
65535;SDS011;52145;49.342;9.116;2023-03-21T17:42:46;12.82;;;3.30;;
65535;SDS011;52145;49.342;9.116;2023-03-21T17:45:12;6.00;;;3.05;;
65535;SDS011;52145;49.342;9.116;2023-03-21T17:47:38;9.85;;;3.42;;
65535;SDS011;52145;49.342;9.116;2023-03-21T17:50:04;11.27;;;4.25;;
65535;SDS011;52145;49.342;9.116;2023-03-21T17:52:36;10.13;;;6.40;;
65535;SDS011;52145;49.342;9.116;2023-03-21T17:55:02;13.98;;;9.00;;
65535;SDS011;52145;49.342;9.116;2023-03-21T17:57:27;7.38;;;3.85;;
65535;SDS011;52145;49.342;9.116;2023-03-21T17:59:53;9.88;;;4.47;;
65535;SDS011;52145;49.342;9.116;2023-03-21T18:02:20;10.38;;;4.68;;
65535;SDS011;52145;49.342;9.116;2023-03-21T18:04:46;11.38;;;4.85;;
65535;SDS011;52145;49.342;9.116;2023-03-21T18:07:12;14.80;;;7.10;;
65535;SDS011;52145;49.342;9.116;2023-03-21T18:09:39;10.73;;;5.90;;
65535;SDS011;52145;49.342;9.116;2023-03-21T18:12:05;7.40;;;3.92;;
65535;SDS011;52145;49.342;9.116;2023-03-21T18:14:30;5.50;;;2.85;;
65535;SDS011;52145;49.342;9.116;2023-03-21T18:16:56;5.38;;;2.85;;
65535;SDS011;52145;49.342;9.116;2023-03-21T18:19:22;6.05;;;3.30;;
65535;SDS011;52145;49.342;9.116;2023-03-21T18:21:47;7.60;;;3.00;;
65535;SDS011;52145;49.342;9.116;2023-03-21T18:24:13;8.45;;;3.60;;
65535;SDS011;52145;49.342;9.116;2023-03-21T18:26:39;9.23;;;3.53;;
65535;SDS011;52145;49.342;9.116;2023-03-21T18:29:05;8.32;;;3.38;;
65535;SDS011;52145;49.342;9.116;2023-03-21T18:31:31;7.10;;;3.00;;
65535;SDS011;52145;49.342;9.116;2023-03-21T18:33:56;6.88;;;3.13;;
65535;SDS011;52145;49.342;9.116;2023-03-21T18:36:22;6.13;;;3.22;;
65535;SDS011;52145;49.342;9.116;2023-03-21T18:38:49;8.52;;;3.33;;
65535;SDS011;52145;49.342;9.116;2023-03-21T18:41:15;10.70;;;3.95;;
65535;SDS011;52145;49.342;9.116;2023-03-21T18:43:44;5.63;;;3.10;;
65535;SDS011;52145;49.342;9.116;2023-03-21T18:46:10;6.10;;;3.72;;
65535;SDS011;52145;49.342;9.116;2023-03-21T18:48:36;6.72;;;3.50;;
65535;SDS011;52145;49.342;9.116;2023-03-21T18:51:02;6.22;;;3.20;;
65535;SDS011;52145;49.342;9.116;2023-03-21T18:53:28;5.15;;;3.47;;
65535;SDS011;52145;49.342;9.116;2023-03-21T18:55:54;8.88;;;4.15;;
65535;SDS011;52145;49.342;9.116;2023-03-21T18:58:20;7.90;;;3.63;;
65535;SDS011;52145;49.342;9.116;2023-03-21T19:00:46;6.47;;;3.50;;
65535;SDS011;52145;49.342;9.116;2023-03-21T19:03:14;6.72;;;3.92;;
65535;SDS011;52145;49.342;9.116;2023-03-21T19:05:40;9.57;;;3.78;;
65535;SDS011;52145;49.342;9.116;2023-03-21T19:08:06;7.05;;;3.38;;
65535;SDS011;52145;49.342;9.116;2023-03-21T19:10:32;6.53;;;3.60;;
65535;SDS011;52145;49.342;9.116;2023-03-21T19:12:58;7.75;;;3.60;;
65535;SDS011;52145;49.342;9.116;2023-03-21T19:15:24;8.77;;;4.57;;
65535;SDS011;52145;49.342;9.116;2023-03-21T19:17:51;8.32;;;4.40;;
65535;SDS011;52145;49.342;9.116;2023-03-21T19:20:18;7.88;;;4.35;;
65535;SDS011;52145;49.342;9.116;2023-03-21T19:22:44;7.82;;;4.93;;
65535;SDS011;52145;49.342;9.116;2023-03-21T19:25:10;10.27;;;4.82;;
65535;SDS011;52145;49.342;9.116;2023-03-21T19:27:37;9.98;;;5.57;;
65535;SDS011;52145;49.342;9.116;2023-03-21T19:30:03;8.45;;;5.13;;
65535;SDS011;52145;49.342;9.116;2023-03-21T19:32:31;8.88;;;5.15;;
65535;SDS011;52145;49.342;9.116;2023-03-21T19:34:57;13.25;;;5.95;;
65535;SDS011;52145;49.342;9.116;2023-03-21T19:37:22;8.93;;;5.57;;
65535;SDS011;52145;49.342;9.116;2023-03-21T19:39:48;10.65;;;5.45;;
65535;SDS011;52145;49.342;9.116;2023-03-21T19:42:13;9.48;;;4.97;;
65535;SDS011;52145;49.342;9.116;2023-03-21T19:44:39;9.63;;;4.90;;